This is the latest recevied weather packets stored in our database for station/object W0NKY-13. If no packets are shown the sender has not sent any weather packets the latest 10 day(s).
| Time | Temp. | Humidity | Pressure | Rain* | Wind** | Luminosity | Snow |
|---|---|---|---|---|---|---|---|
| 1777235739 | 19.44° C | 61% | 1018.5 hPa | 0 mm | - | 663 W/m² | - |
| 1777235118 | 20° C | 59% | 1018.6 hPa | 0 mm | - | 623 W/m² | - |
| 1777232719 | 20° C | 59% | 1018.9 hPa | 0 mm | - | 400 W/m² | - |
| 1777229716 | 20.56° C | 56% | 1019.4 hPa | 0 mm | - | 289 W/m² | - |
| 1777227317 | 18.89° C | 60% | 1019.7 hPa | 0 mm | - | 159 W/m² | - |
| 1777224918 | 17.78° C | 63% | 1020 hPa | 0 mm | - | 80 W/m² | - |
| 1777220719 | 17.22° C | 63% | 1019.9 hPa | 0 mm | - | 76 W/m² | - |
| 1777218319 | 15.56° C | 68% | 1020.2 hPa | 0 mm | - | 131 W/m² | - |
| 1777217137 | 16.11° C | 65% | 1020.2 hPa | 0 mm | - | 127 W/m² | - |
| 1777216517 | 15° C | 69% | 1020.2 hPa | 0 mm | - | 135 W/m² | - |
| 1777214740 | 13.89° C | 72% | 1020.2 hPa | 0 mm | - | 100 W/m² | - |
| 1777212918 | 12.78° C | 74% | 1019.9 hPa | 0 mm | - | 121 W/m² | - |
| 1777211124 | 11.67° C | 77% | 1019.9 hPa | 0 mm | - | 84 W/m² | - |
| 1777199118 | 10° C | 84% | 1018.3 hPa | 0 mm | - | 0 W/m² | - |
| 1777197318 | 10° C | 84% | 1018 hPa | 0 mm | - | 0 W/m² | - |
| 1777196719 | 10° C | 85% | 1018 hPa | 0 mm | - | 0 W/m² | - |
| 1777194319 | 10.56° C | 84% | 1017.6 hPa | 0 mm | - | 0 W/m² | - |
| 1777190117 | 12.22° C | 85% | 1017 hPa | 0 mm | - | 0 W/m² | - |
| 1777188920 | 12.22° C | 86% | 1016.9 hPa | 0 mm | - | 0 W/m² | - |
| 1777188318 | 12.22° C | 86% | 1016.8 hPa | 0 mm | - | 0 W/m² | - |
| 1777181719 | 15° C | 84% | 1015.9 hPa | 0 mm | - | 0 W/m² | - |
| 1777179916 | 15° C | 84% | 1015.6 hPa | 0 mm | - | 0 W/m² | - |
| 1777175117 | 15° C | 83% | 1015.1 hPa | 0 mm | - | 0 W/m² | - |
| 1777171518 | 12.78° C | 87% | 1014.5 hPa | 0 mm | - | 0 W/m² | - |
| 1777170918 | 12.78° C | 87% | 1014.5 hPa | 0 mm | - | 0 W/m² | - |
* Rain latest hour (hover to see other rain measurements)
** Current wind speed in m/s (hover to see current wind gust speed)